Impacts TAF Board INFO
FOR SITUATIONAL AWARENESS. NOT TO BE USED FOR FLIGHT PLANNING PURPOSES.
IDs:

KORD - Chicago/O'Hare Intl, IL, US

Issued at 0904 UTC 22 May 2018
Updated at 1015 UTC 22 May 2018
Potential Impact None Slight Moderate High
Time<<22/23Z 23/00Z 23/01Z 23/02Z 23/03Z 23/04Z 23/05Z 23/06Z 23/07Z 23/08Z 23/09Z 23/10Z 23/11Z>>
Type PRVL PRVL PRVL PRVL PRVL PRVL PRVL PRVL PRVL PRVL PRVL PRVL PRVL
VIS >6 >6 >6 >6 >6 >6 >6 4 4 4 4 4 4
CIG -- -- -- -- -- -- -- 12 12 12 12 12 12
Cover SCT SCT SCT SCT SCT SCT SCT OVC OVC OVC OVC OVC OVC
FltCat VFR VFR VFR VFR VFR VFR VFR MVFR MVFR MVFR MVFR MVFR MVFR
WX -- -- -- -- -- -- -- BR BR BR BR BR BR
WDir 60 60 60 60 60 60 60 VRB VRB VRB VRB VRB VRB
WSpd 8 8 8 8 8 8 8 2 2 2 2 2 2
WGst -- -- -- -- -- -- -- -- -- -- -- -- --

Raw TAF
KORD 220904Z 2209/2312 35004KT 1SM BR OVC003
  TEMPO 2209/2213 1/2SM FG VV002
  FM221500 33007KT P6SM BKN008 OVC013
  FM221800 35007KT P6SM BKN015
  FM222100 02008KT P6SM BKN023
  FM222300 06008KT P6SM SCT035
  FM230600 VRB02KT 4SM BR SCT003 OVC012


METAR Board
Radar Display
Forecast Discussion

FOR SITUATIONAL AWARENESS. NOT TO BE USED FOR FLIGHT PLANNING PURPOSES.